createdAt,value
2023-03-15T00:00:49.119Z,0.75
2023-03-15T00:03:16.287Z,1.02
2023-03-15T00:05:44.338Z,0.98
2023-03-15T00:08:12.242Z,0.55
2023-03-15T00:10:43.005Z,1.03
2023-03-15T00:13:10.782Z,0.70
2023-03-15T00:15:37.983Z,1.77
2023-03-15T00:18:05.197Z,1.67
2023-03-15T00:20:32.424Z,0.60
2023-03-15T00:22:59.600Z,2.38
2023-03-15T00:25:26.688Z,1.98
2023-03-15T00:27:53.867Z,0.95
2023-03-15T00:30:21.133Z,1.33
2023-03-15T00:32:48.359Z,2.20
2023-03-15T00:35:18.324Z,1.20
2023-03-15T00:37:45.433Z,2.40
2023-03-15T00:40:13.329Z,1.75
2023-03-15T00:42:41.058Z,1.02
2023-03-15T00:45:08.502Z,1.60
2023-03-15T00:47:35.690Z,1.92
2023-03-15T00:50:02.777Z,3.35
2023-03-15T00:52:35.893Z,3.50
2023-03-15T00:55:03.232Z,1.92
2023-03-15T00:57:30.632Z,1.65
2023-03-15T00:59:57.783Z,2.45
2023-03-15T01:02:24.860Z,2.25
2023-03-15T01:04:52.024Z,1.73
2023-03-15T01:07:19.152Z,4.22
2023-03-15T01:09:48.461Z,1.30
2023-03-15T01:12:15.690Z,2.22
2023-03-15T01:14:42.892Z,1.38
2023-03-15T01:17:10.057Z,2.83
2023-03-15T01:19:37.175Z,2.60
2023-03-15T01:22:04.245Z,1.63
2023-03-15T01:24:31.351Z,1.42
2023-03-15T01:26:58.482Z,1.20
2023-03-15T01:29:25.629Z,2.28
2023-03-15T01:31:52.885Z,2.85
2023-03-15T01:34:21.501Z,2.28
2023-03-15T01:36:52.412Z,5.13
2023-03-15T01:39:19.611Z,2.17
2023-03-15T01:41:46.678Z,5.63
2023-03-15T01:44:18.022Z,1.85
2023-03-15T01:46:45.171Z,1.92
2023-03-15T01:49:39.395Z,1.23
2023-03-15T01:52:14.340Z,2.08
2023-03-15T01:54:44.230Z,2.97
2023-03-15T01:57:13.992Z,2.17
2023-03-15T01:59:46.027Z,3.67
2023-03-15T02:02:14.935Z,1.70
2023-03-15T02:04:46.483Z,2.72
2023-03-15T02:07:14.968Z,3.08
2023-03-15T02:09:44.941Z,3.75
2023-03-15T02:12:12.201Z,1.25
2023-03-15T02:14:39.708Z,4.80
2023-03-15T02:17:07.130Z,6.25
2023-03-15T02:20:04.797Z,5.63
2023-03-15T02:22:49.597Z,7.88
2023-03-15T02:25:25.369Z,3.13
2023-03-15T02:27:52.602Z,3.20
2023-03-15T02:30:20.036Z,3.08
2023-03-15T02:32:47.335Z,3.72
2023-03-15T02:35:22.933Z,4.57
2023-03-15T02:37:50.876Z,3.08
2023-03-15T02:40:21.156Z,2.77
2023-03-15T02:42:49.334Z,4.57
2023-03-15T02:45:16.526Z,2.60
2023-03-15T02:47:43.855Z,4.07
2023-03-15T02:50:11.436Z,2.83
2023-03-15T02:52:38.532Z,3.97
2023-03-15T02:55:05.851Z,1.63
2023-03-15T02:57:32.928Z,1.67
2023-03-15T03:00:06.891Z,1.63
2023-03-15T03:02:34.162Z,2.53
2023-03-15T03:05:01.376Z,2.08
2023-03-15T03:07:28.434Z,3.67
2023-03-15T03:09:55.567Z,2.67
2023-03-15T03:12:22.889Z,1.83
2023-03-15T03:14:50.637Z,1.90
2023-03-15T03:17:17.837Z,4.43
2023-03-15T03:19:44.730Z,4.32
2023-03-15T03:22:13.373Z,6.95
2023-03-15T03:24:45.968Z,1.38
2023-03-15T03:27:14.895Z,3.85
2023-03-15T03:32:09.372Z,2.15
2023-03-15T03:34:36.645Z,3.65
2023-03-15T03:37:03.899Z,1.83
2023-03-15T03:39:31.222Z,1.42
2023-03-15T03:41:58.318Z,3.88
2023-03-15T03:44:25.475Z,2.42
2023-03-15T03:46:52.578Z,3.42
2023-03-15T03:49:19.694Z,3.63
2023-03-15T03:51:46.819Z,2.28
2023-03-15T03:54:15.915Z,3.95
2023-03-15T03:56:44.317Z,5.28
2023-03-15T03:59:11.486Z,4.63
2023-03-15T04:01:38.634Z,3.13
2023-03-15T04:04:05.807Z,8.77
2023-03-15T04:06:32.596Z,3.58
2023-03-15T04:08:59.535Z,4.28
2023-03-15T04:11:26.889Z,3.13
2023-03-15T04:13:54.764Z,7.82
2023-03-15T04:16:21.657Z,8.00
2023-03-15T04:18:48.360Z,2.47
2023-03-15T04:21:15.080Z,1.48
2023-03-15T04:23:41.815Z,4.05
2023-03-15T04:26:08.524Z,2.40
2023-03-15T04:28:38.036Z,2.85
2023-03-15T04:31:04.939Z,2.05
2023-03-15T04:33:32.581Z,6.35
2023-03-15T04:35:59.389Z,4.32
2023-03-15T04:38:26.898Z,3.33
2023-03-15T04:40:54.823Z,3.78
2023-03-15T04:43:22.320Z,1.63
2023-03-15T04:45:48.979Z,1.75
2023-03-15T04:48:15.604Z,4.30
2023-03-15T04:50:42.229Z,4.70
2023-03-15T04:53:08.932Z,5.63
2023-03-15T04:55:35.585Z,3.58
2023-03-15T04:58:02.248Z,3.67
2023-03-15T05:00:29.015Z,2.85
2023-03-15T05:02:55.773Z,8.18
2023-03-15T05:05:26.581Z,3.47
2023-03-15T05:07:53.963Z,2.53
2023-03-15T05:10:21.757Z,2.78
2023-03-15T05:12:48.450Z,4.25
2023-03-15T05:15:15.455Z,4.03
2023-03-15T05:17:42.214Z,3.55
2023-03-15T05:20:12.729Z,2.92
2023-03-15T05:22:40.825Z,2.88
2023-03-15T05:25:08.764Z,2.20
2023-03-15T05:27:35.838Z,2.67
2023-03-15T05:30:03.993Z,11.52
2023-03-15T05:32:34.769Z,7.55
2023-03-15T05:35:02.226Z,6.25
2023-03-15T05:37:30.307Z,4.65
2023-03-15T05:39:56.965Z,3.95
2023-03-15T05:42:26.243Z,2.90
2023-03-15T05:44:57.071Z,3.67
2023-03-15T05:47:24.016Z,3.92
2023-03-15T05:49:50.853Z,3.35
2023-03-15T05:52:17.533Z,10.23
2023-03-15T05:54:44.416Z,2.78
2023-03-15T05:57:13.876Z,3.92
2023-03-15T05:59:40.556Z,6.53
2023-03-15T06:02:07.428Z,4.32
2023-03-15T06:04:34.269Z,5.60
2023-03-15T06:07:01.031Z,4.07
2023-03-15T06:09:27.811Z,8.77
2023-03-15T06:11:54.651Z,3.85
2023-03-15T06:14:21.576Z,4.80
2023-03-15T06:16:48.366Z,3.88
2023-03-15T06:19:15.131Z,5.50
2023-03-15T06:21:41.839Z,5.20
2023-03-15T06:24:08.926Z,7.50
2023-03-15T06:26:35.657Z,4.47
2023-03-15T06:29:02.440Z,8.48
2023-03-15T06:31:29.219Z,4.35
2023-03-15T06:33:55.989Z,6.18
2023-03-15T06:36:24.951Z,5.90
2023-03-15T06:38:54.492Z,4.53
2023-03-15T06:41:21.538Z,6.57
2023-03-15T06:43:48.370Z,5.90
2023-03-15T06:46:15.262Z,5.88
2023-03-15T06:48:42.043Z,4.40
2023-03-15T06:51:10.296Z,8.07
2023-03-15T06:53:37.008Z,5.38
2023-03-15T06:56:03.898Z,9.80
2023-03-15T06:58:30.928Z,11.23
2023-03-15T07:00:59.476Z,8.10
2023-03-15T07:03:26.489Z,19.67
2023-03-15T07:05:54.422Z,17.17
2023-03-15T07:08:22.388Z,14.57
2023-03-15T07:10:52.118Z,10.17
2023-03-15T07:13:19.544Z,9.85
2023-03-15T07:15:47.813Z,6.80
2023-03-15T07:18:14.941Z,11.38
2023-03-15T07:20:42.166Z,6.95
2023-03-15T07:23:11.478Z,4.28
2023-03-15T07:25:54.071Z,4.72
2023-03-15T07:28:22.277Z,5.95
2023-03-15T07:30:56.378Z,9.30
2023-03-15T07:33:24.228Z,5.60
2023-03-15T07:35:53.776Z,8.75
2023-03-15T07:38:22.021Z,9.55
2023-03-15T07:40:49.267Z,11.13
2023-03-15T07:43:16.434Z,13.73
2023-03-15T07:45:43.800Z,17.67
2023-03-15T07:48:11.283Z,13.80
2023-03-15T07:50:38.756Z,9.23
2023-03-15T07:53:06.576Z,10.05
2023-03-15T07:55:34.073Z,14.48
2023-03-15T07:58:01.686Z,11.40
2023-03-15T08:00:29.233Z,9.05
2023-03-15T08:02:56.508Z,13.02
2023-03-15T08:05:24.825Z,12.55
2023-03-15T08:10:19.687Z,5.22
2023-03-15T08:12:46.950Z,8.57
2023-03-15T08:15:14.920Z,14.70
2023-03-15T08:17:42.388Z,7.37
2023-03-15T08:20:14.997Z,5.32
2023-03-15T08:22:45.275Z,8.20
2023-03-15T08:25:13.545Z,7.25
2023-03-15T08:27:42.043Z,8.82
2023-03-15T08:30:15.048Z,7.63
2023-03-15T08:32:43.078Z,8.30
2023-03-15T08:35:10.482Z,3.97
2023-03-15T08:37:37.633Z,7.13
2023-03-15T08:40:11.238Z,8.75
2023-03-15T08:42:38.833Z,8.52
2023-03-15T08:45:07.075Z,6.72
2023-03-15T08:47:38.060Z,3.85
2023-03-15T08:50:08.250Z,8.13
2023-03-15T08:52:35.414Z,3.10
2023-03-15T08:55:04.812Z,6.47
2023-03-15T08:57:32.907Z,6.60
2023-03-15T09:00:01.586Z,4.07
2023-03-15T09:02:29.375Z,4.35
2023-03-15T09:04:56.574Z,7.05
2023-03-15T09:07:23.676Z,6.82
2023-03-15T09:09:54.249Z,6.15
2023-03-15T09:12:22.021Z,7.22
2023-03-15T09:14:49.130Z,4.78
2023-03-15T09:17:16.317Z,5.10
2023-03-15T09:19:43.530Z,4.03
2023-03-15T09:22:23.458Z,7.72
2023-03-15T09:24:52.621Z,3.92
2023-03-15T09:29:46.916Z,4.95
2023-03-15T09:32:14.057Z,6.78
2023-03-15T09:34:43.428Z,10.77
2023-03-15T09:37:10.738Z,6.22
2023-03-15T09:39:38.931Z,4.35
2023-03-15T09:42:11.523Z,4.50
2023-03-15T09:45:14.268Z,6.63
2023-03-15T09:47:42.621Z,6.35
2023-03-15T09:50:12.460Z,5.70
2023-03-15T09:53:12.010Z,7.05
2023-03-15T09:55:40.176Z,5.20
2023-03-15T09:58:13.029Z,4.70
2023-03-15T10:00:52.075Z,7.22
2023-03-15T10:03:25.541Z,6.38
2023-03-15T10:05:55.184Z,4.20
2023-03-15T10:08:22.487Z,5.90
2023-03-15T10:10:52.406Z,6.57
2023-03-15T10:13:26.356Z,6.38
2023-03-15T10:16:08.930Z,4.65
2023-03-15T10:18:56.380Z,5.80
2023-03-15T10:21:39.315Z,4.97
2023-03-15T10:24:10.105Z,6.25
2023-03-15T10:26:38.339Z,4.32
2023-03-15T10:29:13.033Z,3.38
2023-03-15T10:31:44.908Z,2.97
2023-03-15T10:34:12.636Z,3.35
2023-03-15T10:36:44.615Z,7.88
2023-03-15T10:39:13.006Z,5.55
2023-03-15T10:41:43.340Z,5.13
2023-03-15T10:44:16.775Z,3.60
2023-03-15T10:47:02.719Z,3.45
2023-03-15T10:49:38.825Z,5.60
2023-03-15T10:52:06.518Z,2.83
2023-03-15T10:54:34.546Z,7.97
2023-03-15T10:57:04.860Z,4.13
2023-03-15T10:59:33.135Z,5.22
2023-03-15T11:02:12.421Z,4.82
2023-03-15T11:04:43.334Z,3.50
2023-03-15T11:07:13.405Z,4.07
2023-03-15T11:09:42.322Z,4.03
2023-03-15T11:12:29.807Z,4.03
2023-03-15T11:14:59.189Z,4.35
2023-03-15T11:17:31.948Z,3.10
2023-03-15T11:20:10.122Z,5.45
2023-03-15T11:22:37.172Z,4.88
2023-03-15T11:25:04.384Z,5.10
2023-03-15T11:27:31.852Z,4.32
2023-03-15T11:30:00.021Z,5.95
2023-03-15T11:32:28.511Z,5.82
2023-03-15T11:35:23.141Z,7.10
2023-03-15T11:38:06.164Z,4.30
2023-03-15T11:40:48.183Z,3.67
2023-03-15T11:43:20.354Z,2.85
2023-03-15T11:46:01.800Z,6.55
2023-03-15T11:48:31.834Z,4.47
2023-03-15T11:50:59.432Z,4.03
2023-03-15T11:53:30.365Z,3.05
2023-03-15T11:55:58.656Z,6.45
2023-03-15T11:58:31.085Z,3.35
2023-03-15T12:01:05.178Z,3.08
2023-03-15T12:03:39.969Z,2.83
2023-03-15T12:06:07.239Z,2.38
2023-03-15T12:08:37.289Z,3.25
2023-03-15T12:11:11.097Z,2.70
2023-03-15T12:13:38.221Z,2.88
2023-03-15T12:16:07.314Z,2.65
2023-03-15T12:18:44.053Z,5.30
2023-03-15T12:21:31.603Z,3.92
2023-03-15T12:24:23.413Z,3.33
2023-03-15T12:26:51.609Z,2.75
2023-03-15T12:29:25.911Z,2.08
2023-03-15T12:32:11.931Z,4.40
2023-03-15T12:34:52.355Z,2.15
2023-03-15T12:37:29.095Z,3.88
2023-03-15T12:40:15.095Z,1.83
2023-03-15T12:42:43.258Z,3.63
2023-03-15T12:45:16.528Z,3.03
2023-03-15T12:48:06.555Z,3.08
2023-03-15T12:50:52.814Z,5.13
2023-03-15T12:53:38.687Z,3.17
2023-03-15T12:56:17.885Z,3.38
2023-03-15T12:58:47.395Z,2.80
2023-03-15T13:01:16.701Z,3.55
2023-03-15T13:03:44.327Z,4.38
2023-03-15T13:06:19.877Z,2.28
2023-03-15T13:08:50.167Z,3.47
2023-03-15T13:11:25.679Z,3.10
2023-03-15T13:14:04.986Z,3.00
2023-03-15T13:16:44.596Z,3.45
2023-03-15T13:19:14.487Z,2.72
2023-03-15T13:21:52.700Z,2.95
2023-03-15T13:24:26.743Z,2.35
2023-03-15T13:26:54.009Z,2.53
2023-03-15T13:29:32.927Z,4.93
2023-03-15T13:32:01.713Z,3.38
2023-03-15T13:34:31.220Z,2.75
2023-03-15T13:37:00.203Z,5.47
2023-03-15T13:39:29.751Z,3.28
2023-03-15T13:42:20.813Z,2.85
2023-03-15T13:44:47.536Z,2.88
2023-03-15T13:47:24.311Z,2.65
2023-03-15T13:49:54.565Z,3.33
2023-03-15T13:52:21.320Z,3.67
2023-03-15T13:54:48.798Z,3.05
2023-03-15T13:57:23.589Z,3.00
2023-03-15T13:59:55.620Z,6.00
2023-03-15T14:02:25.380Z,2.22
2023-03-15T14:04:57.010Z,3.35
2023-03-15T14:07:30.092Z,3.45
2023-03-15T14:10:07.763Z,2.53
2023-03-15T14:12:34.906Z,4.23
2023-03-15T14:15:02.053Z,2.20
2023-03-15T14:17:30.613Z,2.90
2023-03-15T14:20:11.492Z,2.60
2023-03-15T14:22:42.063Z,3.58
2023-03-15T14:25:22.346Z,1.98
2023-03-15T14:27:49.503Z,2.40
2023-03-15T14:30:24.119Z,3.05
2023-03-15T14:32:52.968Z,2.28
2023-03-15T14:35:41.704Z,1.73
2023-03-15T14:38:24.905Z,3.00
2023-03-15T14:40:53.126Z,4.50
2023-03-15T14:43:19.894Z,2.78
2023-03-15T14:45:48.907Z,5.50
2023-03-15T14:48:28.816Z,3.15
2023-03-15T14:50:56.201Z,3.50
2023-03-15T14:53:26.200Z,2.47
2023-03-15T14:55:52.969Z,5.43
2023-03-15T14:58:21.822Z,1.88
2023-03-15T15:00:54.277Z,4.97
2023-03-15T15:03:38.564Z,2.88
2023-03-15T15:06:08.337Z,2.40
2023-03-15T15:08:39.880Z,2.20
2023-03-15T15:11:08.640Z,3.45
2023-03-15T15:13:36.595Z,2.50
2023-03-15T15:16:04.741Z,2.70
2023-03-15T15:18:34.866Z,2.78
2023-03-15T15:21:06.655Z,1.85
2023-03-15T15:23:54.850Z,1.33
2023-03-15T15:26:27.014Z,2.05
2023-03-15T15:28:53.980Z,1.88
2023-03-15T15:31:22.986Z,3.10
2023-03-15T15:33:51.586Z,2.83
2023-03-15T15:36:32.292Z,3.15
2023-03-15T15:39:06.106Z,2.95
2023-03-15T15:41:33.442Z,1.30
2023-03-15T15:44:00.662Z,3.47
2023-03-15T15:46:27.763Z,3.13
2023-03-15T15:48:54.718Z,3.80
2023-03-15T15:51:51.399Z,2.53
2023-03-15T15:54:21.607Z,2.00
2023-03-15T15:56:57.262Z,2.17
2023-03-15T15:59:25.649Z,2.92
2023-03-15T16:02:00.779Z,4.40
2023-03-15T16:04:28.931Z,3.35
2023-03-15T16:07:02.121Z,3.58
2023-03-15T16:09:30.697Z,1.75
2023-03-15T16:11:58.126Z,5.78
2023-03-15T16:14:25.050Z,4.18
2023-03-15T16:16:51.915Z,2.53
2023-03-15T16:19:19.065Z,1.63
2023-03-15T16:21:48.942Z,5.57
2023-03-15T16:24:31.962Z,1.23
2023-03-15T16:27:02.472Z,2.25
2023-03-15T16:29:49.607Z,2.63
2023-03-15T16:32:32.895Z,3.58
2023-03-15T16:35:05.466Z,2.83
2023-03-15T16:37:35.133Z,1.30
2023-03-15T16:40:02.161Z,3.35
2023-03-15T16:42:28.920Z,2.50
2023-03-15T16:44:55.659Z,3.08
2023-03-15T16:47:22.357Z,2.22
2023-03-15T16:49:49.225Z,1.83
2023-03-15T16:52:17.070Z,1.75
2023-03-15T16:54:47.572Z,2.53
2023-03-15T16:57:22.179Z,2.10
2023-03-15T16:59:49.648Z,1.88
2023-03-15T17:02:27.652Z,6.65
2023-03-15T17:04:54.891Z,2.25
2023-03-15T17:07:35.220Z,2.80
2023-03-15T17:10:08.641Z,1.42
2023-03-15T17:12:36.677Z,3.65
2023-03-15T17:15:05.149Z,4.72
2023-03-15T17:17:33.295Z,2.08
2023-03-15T17:20:01.826Z,3.58
2023-03-15T17:22:28.588Z,3.50
2023-03-15T17:24:55.483Z,4.40
2023-03-15T17:27:42.780Z,2.58
2023-03-15T17:30:32.108Z,2.88
2023-03-15T17:32:59.851Z,2.28
2023-03-15T17:35:33.900Z,1.63
2023-03-15T17:38:02.205Z,3.88
2023-03-15T17:40:31.370Z,2.13
2023-03-15T17:43:00.137Z,1.08
2023-03-15T17:45:32.925Z,3.88
2023-03-15T17:48:01.048Z,2.50
2023-03-15T17:50:30.758Z,2.83
2023-03-15T17:53:18.269Z,2.95
2023-03-15T17:55:47.456Z,2.13
2023-03-15T17:58:19.840Z,3.03
2023-03-15T18:00:48.525Z,2.45
2023-03-15T18:03:16.652Z,4.32
2023-03-15T18:05:43.880Z,3.08
2023-03-15T18:08:19.183Z,2.53
2023-03-15T18:10:46.615Z,1.75
2023-03-15T18:13:21.434Z,7.15
2023-03-15T18:15:51.892Z,4.32
2023-03-15T18:18:19.240Z,2.08
2023-03-15T18:20:46.702Z,1.88
2023-03-15T18:23:18.647Z,3.88
2023-03-15T18:25:45.470Z,2.55
2023-03-15T18:28:12.254Z,2.38
2023-03-15T18:30:39.137Z,3.08
2023-03-15T18:33:06.817Z,2.50
2023-03-15T18:35:35.922Z,2.87
2023-03-15T18:38:03.996Z,2.17
2023-03-15T18:40:32.356Z,2.08
2023-03-15T18:43:00.296Z,2.30
2023-03-15T18:45:30.867Z,1.60
2023-03-15T18:47:59.826Z,1.85
2023-03-15T18:50:29.139Z,3.88
2023-03-15T18:52:56.004Z,3.22
2023-03-15T18:55:24.051Z,1.95
2023-03-15T18:57:52.751Z,2.90
2023-03-15T19:00:26.915Z,2.92
2023-03-15T19:02:56.552Z,2.30
2023-03-15T19:05:24.326Z,2.10
2023-03-15T19:07:51.110Z,2.70
2023-03-15T19:10:19.969Z,3.78
2023-03-15T19:12:48.325Z,2.33
2023-03-15T19:15:17.496Z,2.15
2023-03-15T19:17:47.635Z,4.50
2023-03-15T19:20:17.388Z,3.03
2023-03-15T19:22:45.092Z,2.22
2023-03-15T19:25:14.113Z,2.30
2023-03-15T19:27:41.956Z,3.95
2023-03-15T19:30:14.491Z,3.53
2023-03-15T19:32:42.681Z,2.42
2023-03-15T19:35:10.492Z,2.55
2023-03-15T19:37:38.379Z,3.10
2023-03-15T19:40:09.195Z,3.97
2023-03-15T19:42:36.317Z,1.77
2023-03-15T19:45:03.356Z,2.38
2023-03-15T19:47:30.317Z,2.55
2023-03-15T19:49:57.257Z,3.58
2023-03-15T19:52:24.380Z,2.53
2023-03-15T19:54:51.753Z,2.58
2023-03-15T19:57:18.486Z,6.53
2023-03-15T19:59:45.505Z,4.88
2023-03-15T20:02:13.602Z,3.88
2023-03-15T20:04:41.086Z,4.57
2023-03-15T20:07:11.233Z,3.45
2023-03-15T20:09:39.793Z,3.35
2023-03-15T20:12:08.094Z,5.28
2023-03-15T20:14:35.465Z,4.55
2023-03-15T20:17:03.479Z,3.38
2023-03-15T20:19:30.522Z,4.88
2023-03-15T20:22:07.416Z,2.63
2023-03-15T20:24:36.559Z,3.67
2023-03-15T20:27:03.286Z,2.20
2023-03-15T20:29:31.589Z,4.15
2023-03-15T20:31:58.246Z,4.25
2023-03-15T20:34:24.970Z,2.90
2023-03-15T20:36:54.427Z,3.35
2023-03-15T20:39:23.996Z,3.45
2023-03-15T20:41:51.819Z,3.88
2023-03-15T20:44:19.706Z,4.20
2023-03-15T20:46:46.526Z,2.63
2023-03-15T20:49:14.845Z,4.43
2023-03-15T20:51:41.483Z,4.40
2023-03-15T20:54:08.189Z,5.07
2023-03-15T20:56:35.006Z,4.03
2023-03-15T20:59:01.664Z,4.55
2023-03-15T21:01:28.326Z,4.70
2023-03-15T21:03:56.560Z,5.25
2023-03-15T21:06:23.531Z,56.80
2023-03-15T21:08:50.380Z,71.22
2023-03-15T21:11:17.552Z,50.40
2023-03-15T21:13:45.485Z,24.80
2023-03-15T21:16:13.269Z,17.77
2023-03-15T21:18:47.506Z,13.97
2023-03-15T21:21:14.393Z,5.57
2023-03-15T21:23:41.971Z,8.57
2023-03-15T21:26:10.767Z,5.47
2023-03-15T21:31:05.572Z,6.68
2023-03-15T21:33:33.086Z,4.28
2023-03-15T21:36:00.736Z,6.13
2023-03-15T21:38:28.942Z,4.57
2023-03-15T21:40:59.459Z,4.80
2023-03-15T21:43:33.416Z,3.72
2023-03-15T21:46:15.101Z,5.03
2023-03-15T21:48:41.983Z,4.30
2023-03-15T21:51:08.851Z,5.10
2023-03-15T21:53:36.413Z,3.92
2023-03-15T21:56:03.895Z,3.67
2023-03-15T21:58:31.006Z,6.70
2023-03-15T22:01:06.809Z,4.00
2023-03-15T22:03:35.741Z,4.40
2023-03-15T22:06:02.955Z,4.70
2023-03-15T22:08:29.782Z,4.35
2023-03-15T22:10:58.456Z,4.10
2023-03-15T22:16:02.440Z,4.20
2023-03-15T22:18:32.027Z,5.75
2023-03-15T22:21:00.872Z,4.15
2023-03-15T22:25:55.810Z,3.50
2023-03-15T22:28:25.025Z,4.75
2023-03-15T22:30:52.588Z,4.93
2023-03-15T22:33:22.157Z,5.95
2023-03-15T22:35:56.870Z,4.15
2023-03-15T22:38:25.323Z,6.22
2023-03-15T22:41:00.802Z,5.05
2023-03-15T22:43:27.535Z,6.15
2023-03-15T22:45:54.295Z,5.15
2023-03-15T22:48:21.289Z,5.57
2023-03-15T22:50:54.890Z,5.05
2023-03-15T22:53:21.551Z,5.82
2023-03-15T22:55:48.264Z,4.20
2023-03-15T22:58:15.175Z,4.88
2023-03-15T23:00:41.901Z,5.72
2023-03-15T23:03:08.591Z,6.93
2023-03-15T23:05:35.704Z,3.75
2023-03-15T23:08:02.400Z,4.30
2023-03-15T23:10:29.039Z,5.18
2023-03-15T23:12:56.120Z,4.45
2023-03-15T23:15:23.214Z,3.85
2023-03-15T23:17:50.016Z,4.35
2023-03-15T23:20:19.019Z,4.15
2023-03-15T23:22:46.847Z,5.63
2023-03-15T23:25:15.198Z,6.77
2023-03-15T23:27:42.085Z,5.70
2023-03-15T23:30:10.327Z,5.00
2023-03-15T23:32:37.749Z,2.85
2023-03-15T23:35:06.498Z,4.05
2023-03-15T23:37:36.460Z,3.28
2023-03-15T23:40:07.842Z,3.53
2023-03-15T23:42:35.591Z,4.55
2023-03-15T23:45:02.258Z,4.15
2023-03-15T23:47:28.907Z,4.63
2023-03-15T23:49:55.646Z,3.65
2023-03-15T23:52:25.480Z,4.43
2023-03-15T23:54:53.863Z,4.10
2023-03-15T23:57:21.069Z,3.28
2023-03-15T23:59:47.827Z,5.68
